Aviation Digital Data Service (ADDS)

Output produced by METARs form (1805 UTC 12 December 2017)
found at http://aviationweather.gov/adds/metars/
 
KGSO 121720Z 1218/1318 30020G30KT P6SM SCT045 BKN140 BKN250 
     FM130000 29012G22KT P6SM SKC 
     FM130900 28008KT P6SM SKC